Airfield :
LOGIN :

Register | Disclaimer

   EN    FR    IT 

 










Legend :    VFR   Marginal VFR   IFR   Intensive IFR   Very Intensive IFR
Visi :
Ceiling :
>= 8 km
>= 3000ft
5 to 8 km
1000 to 3000 ft
1500m to 5 km
500 to 1000 ft
800 to 1500m
200 to 500 ft
< 800m
< 200 ft
Symbols :   Thunderstorms  Fog  Heavy snow  Heavy precipitations  Wind > 20 kt
SIGMETs :     Misc.  Thunderstorms  Icing  Turbulence  Mountain Waves  Volcanic Ashes






- Airport Elevation : 915 ft
- IATA code : LUG


LSZA - Lugano

CURRENT METAR :
  • 212250Z AUTO VRB01KT CAVOK M01/M04 Q1038

EXPIRED METARs :
  • 212220Z AUTO 36002KT 9999 NCD M01/M04 Q1039
  • 212150Z AUTO VRB01KT CAVOK M00/M04 Q1039
  • 212120Z AUTO 01003KT 350V070 CAVOK M01/M04 Q1039
  • 212050Z AUTO VRB01KT 9999 NSC M00/M03 Q1039

TAF TAF LSZA
Valid from the 21 at 15:00 until the 22 at 00:00 UTC


211425Z 2115/2124 VRB03KT CAVOK
ATIS : +41 22 417 40 88



MET'MAP, your aeronautical weather chart ! - Copyright ORBIFLY December 2007 - Disclaimer

ORBIFLY MET'MAP TEAM :

Programming & Development : Alexandra Zaïnal
Concept & original design : Baudouin d'Aumeries
Assistance for programming : Marc-Olivier Méhu
Technical & hardware support : Manuel Goepfert

Contact : metmap@orbifly.com




SOURCES & CREDITS :

   NOAA